createdAt,value
2019-02-28T00:07:31.835Z,24.93
2019-02-28T00:12:36.838Z,20.07
2019-02-28T00:17:43.562Z,19.97
2019-02-28T00:22:49.440Z,20.67
2019-02-28T00:27:54.484Z,23.03
2019-02-28T00:32:59.977Z,21.07
2019-02-28T00:38:05.081Z,22.07
2019-02-28T00:43:10.066Z,21.50
2019-02-28T00:48:15.071Z,22.30
2019-02-28T00:53:20.080Z,22.40
2019-02-28T00:58:28.675Z,22.23
2019-02-28T01:03:31.774Z,21.80
2019-02-28T01:08:36.835Z,22.20
2019-02-28T01:13:41.826Z,21.60
2019-02-28T01:18:47.004Z,21.70
2019-02-28T01:23:51.972Z,20.27
2019-02-28T01:29:01.357Z,19.93
2019-02-28T01:34:03.804Z,19.17
2019-02-28T01:39:09.067Z,21.97
2019-02-28T01:44:14.526Z,24.10
2019-02-28T01:49:19.522Z,25.08
2019-02-28T01:54:25.134Z,21.23
2019-02-28T01:59:31.262Z,21.40
2019-02-28T02:04:36.595Z,19.82
2019-02-28T02:09:42.729Z,20.68
2019-02-28T02:14:48.640Z,20.27
2019-02-28T02:19:53.626Z,20.63
2019-02-28T02:24:59.306Z,20.27
2019-02-28T02:30:13.670Z,24.40
2019-02-28T02:35:12.982Z,18.75
2019-02-28T02:40:23.007Z,21.07
2019-02-28T02:45:25.618Z,19.57
2019-02-28T02:50:35.922Z,21.37
2019-02-28T02:55:37.499Z,21.25
2019-02-28T03:00:49.543Z,19.70
2019-02-28T03:05:51.103Z,20.05
2019-02-28T03:10:56.265Z,19.67
2019-02-28T03:16:01.269Z,20.27
2019-02-28T03:21:06.654Z,19.85
2019-02-28T03:26:11.782Z,19.90
2019-02-28T03:31:16.723Z,24.00
2019-02-28T03:36:21.766Z,19.17
2019-02-28T03:41:26.735Z,19.07
2019-02-28T03:46:31.705Z,20.05
2019-02-28T03:51:36.711Z,18.47
2019-02-28T03:56:41.735Z,19.12
2019-02-28T04:01:46.840Z,19.17
2019-02-28T04:06:52.382Z,19.48
2019-02-28T04:11:57.354Z,18.80
2019-02-28T04:17:02.354Z,18.95
2019-02-28T04:22:08.476Z,19.12
2019-02-28T04:27:13.499Z,19.60
2019-02-28T04:32:18.483Z,19.97
2019-02-28T04:37:23.499Z,21.57
2019-02-28T04:42:28.470Z,25.88
2019-02-28T04:47:33.490Z,23.02
2019-02-28T04:52:38.444Z,21.48
2019-02-28T04:57:45.857Z,20.62
2019-02-28T05:02:53.996Z,22.00
2019-02-28T05:07:57.560Z,20.80
2019-02-28T05:13:02.570Z,21.67
2019-02-28T05:18:07.516Z,24.32
2019-02-28T05:23:12.555Z,25.88
2019-02-28T05:28:17.566Z,22.35
2019-02-28T05:33:22.643Z,21.37
2019-02-28T05:38:28.719Z,21.62
2019-02-28T05:43:33.727Z,22.33
2019-02-28T05:48:39.689Z,23.70
2019-02-28T05:53:44.702Z,21.65
2019-02-28T05:58:52.566Z,22.50
2019-02-28T06:03:56.449Z,27.07
2019-02-28T06:09:01.428Z,30.65
2019-02-28T06:14:08.386Z,26.23
2019-02-28T06:19:15.483Z,35.30
2019-02-28T06:24:20.488Z,29.85
2019-02-28T06:29:25.533Z,29.03
2019-02-28T06:34:30.624Z,30.23
2019-02-28T06:39:37.534Z,24.37
2019-02-28T06:44:42.556Z,25.05
2019-02-28T06:49:47.746Z,27.00
2019-02-28T06:54:54.328Z,31.55
2019-02-28T06:59:59.535Z,26.33
2019-02-28T07:05:04.702Z,28.97
2019-02-28T07:10:12.645Z,32.33
2019-02-28T07:15:23.690Z,29.90
2019-02-28T07:20:24.931Z,30.60
2019-02-28T07:25:33.079Z,35.25
2019-02-28T07:30:41.118Z,34.63
2019-02-28T07:35:46.864Z,30.85
2019-02-28T07:40:52.148Z,31.10
2019-02-28T07:45:57.238Z,31.03
2019-02-28T07:51:02.897Z,31.97
2019-02-28T07:56:11.648Z,35.15
2019-02-28T08:01:21.140Z,35.55
2019-02-28T08:06:26.382Z,36.40
2019-02-28T08:11:33.471Z,38.77
2019-02-28T08:16:39.124Z,38.58
2019-02-28T08:21:49.388Z,36.70
2019-02-28T08:26:53.654Z,38.60
2019-02-28T08:31:58.339Z,37.03
2019-02-28T08:37:03.798Z,35.57
2019-02-28T08:42:08.925Z,37.05
2019-02-28T08:47:55.451Z,36.98
2019-02-28T08:53:05.560Z,39.13
2019-02-28T08:58:12.393Z,37.67
2019-02-28T09:03:17.862Z,38.47
2019-02-28T09:08:25.338Z,38.93
2019-02-28T09:13:30.854Z,39.63
2019-02-28T09:18:35.994Z,41.40
2019-02-28T09:23:41.153Z,44.23
2019-02-28T09:28:47.500Z,44.23
2019-02-28T09:33:55.433Z,42.95
2019-02-28T09:39:00.381Z,40.57
2019-02-28T09:44:07.108Z,40.52
2019-02-28T13:07:20.376Z,44.07
2019-02-28T13:12:25.392Z,44.10
2019-02-28T13:17:31.691Z,43.20
2019-02-28T13:22:37.439Z,44.60
2019-02-28T13:27:45.200Z,42.60
2019-02-28T13:32:49.177Z,43.63
2019-02-28T13:37:54.369Z,43.27
2019-02-28T13:43:01.670Z,45.60
2019-02-28T13:48:06.384Z,42.30
2019-02-28T13:53:18.973Z,44.97
2019-02-28T13:58:21.541Z,46.73
2019-02-28T14:03:25.863Z,44.27
2019-02-28T14:08:31.304Z,45.20
2019-02-28T14:13:36.362Z,45.23
2019-02-28T14:18:42.581Z,45.47
2019-02-28T18:45:10.301Z,37.37
2019-02-28T18:50:16.941Z,37.63
2019-02-28T18:55:22.591Z,37.50
2019-02-28T19:00:27.786Z,37.63
2019-02-28T19:05:33.175Z,40.27
2019-02-28T19:10:38.674Z,40.60
2019-02-28T19:15:45.218Z,39.97
2019-02-28T19:20:50.451Z,39.27
2019-02-28T19:25:56.604Z,42.27
2019-02-28T19:31:02.296Z,41.57
2019-02-28T19:36:07.388Z,42.07
2019-02-28T19:41:12.763Z,43.43
2019-02-28T19:46:17.988Z,43.53
2019-02-28T19:51:23.377Z,43.50
2019-02-28T19:56:28.574Z,41.83
2019-02-28T20:01:33.808Z,44.10
2019-02-28T20:06:38.798Z,44.47
2019-02-28T20:11:43.832Z,45.47
2019-02-28T20:16:50.173Z,45.27
2019-02-28T20:21:56.924Z,44.97
2019-02-28T20:27:02.044Z,47.20
2019-02-28T20:32:07.172Z,47.17
2019-02-28T20:37:12.506Z,46.30
2019-02-28T20:42:19.562Z,46.97
2019-02-28T20:47:24.901Z,44.20
2019-02-28T20:52:30.008Z,46.90
2019-02-28T20:57:35.171Z,45.60
2019-02-28T21:02:40.313Z,46.93
2019-02-28T21:07:45.552Z,47.87
2019-02-28T21:12:50.870Z,49.80
2019-02-28T21:17:56.078Z,51.37
2019-02-28T21:23:01.151Z,52.73
2019-02-28T21:28:06.481Z,54.37
2019-02-28T21:33:11.712Z,50.80
2019-02-28T21:38:17.813Z,51.00
2019-02-28T21:43:23.249Z,49.40
2019-02-28T21:48:28.410Z,49.33
2019-02-28T21:53:33.766Z,49.60
2019-02-28T21:58:38.800Z,48.07
2019-02-28T22:03:43.837Z,47.03
2019-02-28T22:08:48.857Z,49.80
2019-02-28T22:13:53.900Z,48.07
2019-02-28T22:18:58.972Z,49.23
2019-02-28T22:24:04.067Z,47.67
2019-02-28T22:29:10.687Z,48.93
2019-02-28T22:34:36.364Z,49.27
2019-02-28T22:39:41.343Z,48.77
2019-02-28T22:44:46.398Z,49.33
2019-02-28T22:49:51.485Z,49.43
2019-02-28T22:54:56.447Z,51.90
2019-02-28T23:00:02.104Z,51.10
2019-02-28T23:05:08.790Z,47.33
2019-02-28T23:10:13.811Z,49.57
2019-02-28T23:15:19.636Z,48.87
2019-02-28T23:20:26.468Z,51.57
2019-02-28T23:25:31.467Z,49.83
2019-02-28T23:30:47.013Z,52.57
2019-02-28T23:35:52.175Z,54.40
2019-02-28T23:40:57.769Z,53.67
2019-02-28T23:46:02.803Z,53.63
2019-02-28T23:51:07.831Z,51.67
2019-02-28T23:56:12.829Z,49.83
